Pelham, New York
Current Conditions -  °F | °C
As of 10:51 AM on Thursday 29 Jan 2015 (Local Time) from KLGA Reporting Station
Broken Clouds Broken Clouds  
Wind Chill: 18°   Ceiling: 25000
Heat Index: 26°   Visibility: 10mi
Dew Point:   Wind: 7mph
Humidity: 43%   Direction: 60°ENE
Pressure: 30.31"   Gusts: NA
Location:  40.91°N, 73.81°W
Report Text: KLGA 291551Z 06006KT 10SM BKN250 M03/M14 A3031 RMK AO2 SLP263 T10331144
Loading
Personal Weather Stations






























Interactive Weather Map New forecast layout! Learn more

10-Day Weather Forecast

Advertisements
Track Severe Weather on mobile